Map

Track Data

SID SEASON NUMBER BASIN SUBBASIN NAME ISO_TIME NATURE LAT LON WMO_WIND WMO_PRES WMO_AGENCY TRACK_TYPE DIST2LAND LANDFALL IFLAG USA_AGENCY USA_ATCF_ID USA_LAT USA_LON USA_RECORD USA_STATUS USA_WIND USA_PRES USA_SSHS USA_R34_NE USA_R34_SE USA_R34_SW USA_R34_NW USA_R50_NE USA_R50_SE USA_R50_SW USA_R50_NW USA_R64_NE USA_R64_SE USA_R64_SW USA_R64_NW USA_POCI USA_ROCI USA_RMW USA_EYE TOKYO_LAT TOKYO_LON TOKYO_GRADE TOKYO_WIND TOKYO_PRES TOKYO_R50_DIR TOKYO_R50_LONG TOKYO_R50_SHORT TOKYO_R30_DIR TOKYO_R30_LONG TOKYO_R30_SHORT TOKYO_LAND CMA_LAT CMA_LON CMA_CAT CMA_WIND CMA_PRES HKO_LAT HKO_LON HKO_CAT HKO_WIND HKO_PRES NEWDELHI_LAT NEWDELHI_LON NEWDELHI_GRADE NEWDELHI_WIND NEWDELHI_PRES NEWDELHI_CI NEWDELHI_DP NEWDELHI_POCI REUNION_LAT REUNION_LON REUNION_TYPE REUNION_WIND REUNION_PRES REUNION_TNUM REUNION_CI REUNION_RMW REUNION_R34_NE REUNION_R34_SE REUNION_R34_SW REUNION_R34_NW REUNION_R50_NE REUNION_R50_SE REUNION_R50_SW REUNION_R50_NW REUNION_R64_NE REUNION_R64_SE REUNION_R64_SW REUNION_R64_NW BOM_LAT BOM_LON BOM_TYPE BOM_WIND BOM_PRES BOM_TNUM BOM_CI BOM_RMW BOM_R34_NE BOM_R34_SE BOM_R34_SW BOM_R34_NW BOM_R50_NE BOM_R50_SE BOM_R50_SW BOM_R50_NW BOM_R64_NE BOM_R64_SE BOM_R64_SW BOM_R64_NW BOM_ROCI BOM_POCI BOM_EYE BOM_POS_METHOD BOM_PRES_METHOD NADI_LAT NADI_LON NADI_CAT NADI_WIND NADI_PRES WELLINGTON_LAT WELLINGTON_LON WELLINGTON_WIND WELLINGTON_PRES DS824_LAT DS824_LON DS824_STAGE DS824_WIND DS824_PRES TD9636_LAT TD9636_LON TD9636_STAGE TD9636_WIND TD9636_PRES TD9635_LAT TD9635_LON TD9635_WIND TD9635_PRES TD9635_ROCI NEUMANN_LAT NEUMANN_LON NEUMANN_CLASS NEUMANN_WIND NEUMANN_PRES MLC_LAT MLC_LON MLC_CLASS MLC_WIND MLC_PRES USA_GUST BOM_GUST BOM_GUST_PER REUNION_GUST REUNION_GUST_PER USA_SEAHGT USA_SEARAD_NE USA_SEARAD_SE USA_SEARAD_SW USA_SEARAD_NW STORM_SPEED STORM_DIR
1930270N13147 1930 48 WP MM NOT_NAMED 1930-09-27 10:00:00 NR 12.5000 146.800 main 1635 1635 __________O___ -1 12.5000 146.800 7 5 347
1930270N13147 1930 48 WP MM NOT_NAMED 1930-09-27 12:00:00 NR 12.6680 146.751 main 1658 1658 __________P___ -1 12.6680 146.751 7 6 343
1930270N13147 1930 48 WP MM NOT_NAMED 1930-09-27 15:00:00 NR 12.9383 146.665 main 1680 1691 __________P___ -1 12.9383 146.665 7 6 341
1930270N13147 1930 48 WP MM NOT_NAMED 1930-09-27 18:00:00 NR 13.2555 146.545 main 1725 1725 __________P___ -1 13.2555 146.545 7 8 338
1930270N13147 1930 48 WP MM NOT_NAMED 1930-09-27 21:00:00 NR 13.6477 146.373 main 1759 1770 __________P___ -1 13.6477 146.373 7 9 337
1930270N13147 1930 48 WP MM NOT_NAMED 1930-09-27 22:00:00 NR 13.8000 146.300 main 1781 1781 __________O___ -1 13.8000 146.300 7 11 334
1930270N13147 1930 48 WP MM NOT_NAMED 1930-09-28 00:00:00 NR 14.1394 146.129 main 1815 1826 __________P___ -1 14.1394 146.129 7 12 333
1930270N13147 1930 48 WP MM NOT_NAMED 1930-09-28 03:00:00 NR 14.7118 145.815 main 1884 1884 __________P___ -1 14.7118 145.815 7 14 331
1930270N13147 1930 48 WP MM NOT_NAMED 1930-09-28 06:00:00 NR 15.3185 145.447 main 1953 1964 __________P___ -1 15.3185 145.447 7 14 328
1930270N13147 1930 48 WP MM NOT_NAMED 1930-09-28 09:00:00 NR 15.9128 145.041 main 2024 2024 __________P___ -1 15.9128 145.041 7 14 326
1930270N13147 1930 48 WP MM NOT_NAMED 1930-09-28 10:00:00 NR 16.1000 144.900 main 2047 2047 __________O___ -1 16.1000 144.900 7 13 323
1930270N13147 1930 48 WP MM NOT_NAMED 1930-09-28 12:00:00 NR 16.4416 144.625 main 2083 2025 __________P___ -1 16.4416 144.625 7 13 320
1930270N13147 1930 48 WP MM NOT_NAMED 1930-09-28 15:00:00 NR 16.9227 144.188 main 2025 1953 __________P___ -1 16.9227 144.188 7 13 317
1930270N13147 1930 48 WP MM NOT_NAMED 1930-09-28 18:00:00 NR 17.3664 143.729 main 1953 1896 __________P___ -1 17.3664 143.729 7 12 314
1930270N13147 1930 48 WP MM NOT_NAMED 1930-09-28 21:00:00 NR 17.7728 143.258 main 1896 1877 __________P___ -1 17.7728 143.258 7 12 312
1930270N13147 1930 48 WP MM NOT_NAMED 1930-09-28 22:00:00 NR 17.9000 143.100 main 1877 1845 __________O___ -1 17.9000 143.100 7 12 308
1930270N13147 1930 48 WP MM NOT_NAMED 1930-09-29 00:00:00 NR 18.1296 142.770 main 1845 1795 __________P___ -1 18.1296 142.770 7 12 304
1930270N13147 1930 48 WP MM NOT_NAMED 1930-09-29 03:00:00 NR 18.4421 142.269 main 1795 1746 __________P___ -1 18.4421 142.269 7 11 303
1930270N13147 1930 48 WP MM NOT_NAMED 1930-09-29 06:00:00 NR 18.7467 141.783 main 1746 1687 __________P___ -1 18.7467 141.783 7 11 306
1930270N13147 1930 48 WP MM NOT_NAMED 1930-09-29 09:00:00 NR 19.0778 141.336 main 1687 1673 __________P___ -1 19.0778 141.336 7 11 309
1930270N13147 1930 48 WP MM NOT_NAMED 1930-09-29 10:00:00 NR 19.2000 141.200 main 1673 1632 __________O___ -1 19.2000 141.200 7 11 316
1930270N13147 1930 48 WP MM NOT_NAMED 1930-09-29 12:00:00 NR 19.4822 140.921 main 1632 1573 __________P___ -1 19.4822 140.921 7 12 320
1930270N13147 1930 48 WP MM NOT_NAMED 1930-09-29 15:00:00 NR 19.9436 140.546 main 1573 1509 __________P___ -1 19.9436 140.546 7 11 326
1930270N13147 1930 48 WP MM NOT_NAMED 1930-09-29 18:00:00 NR 20.4339 140.245 main 1509 1451 __________P___ -1 20.4339 140.245 7 11 334
1930270N13147 1930 48 WP MM NOT_NAMED 1930-09-29 21:00:00 NR 20.9343 140.042 main 1451 1433 __________P___ -1 20.9343 140.042 7 11 341
1930270N13147 1930 48 WP MM NOT_NAMED 1930-09-29 22:00:00 NR 21.1000 140.000 main 1433 1399 __________O___ -1 21.1000 140.000 7 10 350
1930270N13147 1930 48 WP MM NOT_NAMED 1930-09-30 00:00:00 NR 21.4268 139.945 main 1399 1348 __________P___ -1 21.4268 139.945 7 10 357
1930270N13147 1930 48 WP MM NOT_NAMED 1930-09-30 03:00:00 NR 21.9175 139.958 main 1348 1298 __________P___ -1 21.9175 139.958 7 10 6
1930270N13147 1930 48 WP MM NOT_NAMED 1930-09-30 06:00:00 NR 22.3978 140.062 main 1298 1248 __________P___ -1 22.3978 140.062 7 10 15
1930270N13147 1930 48 WP MM NOT_NAMED 1930-09-30 09:00:00 NR 22.8549 140.233 main 1248 1241 __________P___ -1 22.8549 140.233 7 10 20
1930270N13147 1930 48 WP MM NOT_NAMED 1930-09-30 10:00:00 NR 23.0000 140.300 main 1241 1213 __________O___ -1 23.0000 140.300 7 9 20
1930270N13147 1930 48 WP MM NOT_NAMED 1930-09-30 12:00:00 NR 23.2831 140.403 main 1213 1179 __________P___ -1 23.2831 140.403 7 9 22
1930270N13147 1930 48 WP MM NOT_NAMED 1930-09-30 15:00:00 NR 23.6827 140.602 main 1179 1150 __________P___ -1 23.6827 140.602 7 9 28
1930270N13147 1930 48 WP MM NOT_NAMED 1930-09-30 18:00:00 NR 24.0526 140.858 main 1150 1128 __________P___ -1 24.0526 140.858 7 9 37
1930270N13147 1930 48 WP MM NOT_NAMED 1930-09-30 21:00:00 NR 24.3931 141.178 main 1133 1127 __________P___ -1 24.3931 141.178 7 9 42
1930270N13147 1930 48 WP MM NOT_NAMED 1930-09-30 22:00:00 NR 24.5000 141.300 main 1127 1117 __________O___ -1 24.5000 141.300 7 10 47
1930270N13147 1930 48 WP MM NOT_NAMED 1930-10-01 00:00:00 NR 24.7169 141.565 main 1121 1107 __________P___ -1 24.7169 141.565 7 10 52
1930270N13147 1930 48 WP MM NOT_NAMED 1930-10-01 03:00:00 NR 25.0171 142.020 main 1113 1096 __________P___ -1 25.0171 142.020 7 10 57
1930270N13147 1930 48 WP MM NOT_NAMED 1930-10-01 06:00:00 NR 25.2870 142.518 main 1096 1087 __________P___ -1 25.2870 142.518 7 10 61
1930270N13147 1930 48 WP MM NOT_NAMED 1930-10-01 09:00:00 NR 25.5267 143.031 main 1090 1082 __________P___ -1 25.5267 143.031 7 10 63
1930270N13147 1930 48 WP MM NOT_NAMED 1930-10-01 10:00:00 NR 25.6000 143.200 main 1084 1076 __________O___ -1 25.6000 143.200 7 10 65
1930270N13147 1930 48 WP MM NOT_NAMED 1930-10-01 12:00:00 NR 25.7371 143.532 main 1082 1071 __________P___ -1 25.7371 143.532 7 10 66
1930270N13147 1930 48 WP MM NOT_NAMED 1930-10-01 15:00:00 NR 25.9229 144.014 main 1077 1071 __________P___ -1 25.9229 144.014 7 9 68
1930270N13147 1930 48 WP MM NOT_NAMED 1930-10-01 18:00:00 NR 26.0911 144.484 main 1075 1073 __________P___ -1 26.0911 144.484 7 9 69
1930270N13147 1930 48 WP MM NOT_NAMED 1930-10-01 21:00:00 NR 26.2487 144.946 main 1081 1075 __________P___ -1 26.2487 144.946 7 9 69
1930270N13147 1930 48 WP MM NOT_NAMED 1930-10-01 22:00:00 NR 26.3000 145.100 main 1080 __________O___ -1 26.3000 145.100 7 9 70

Digital Typhoon Data and Search

About IBTrACS Database

This database is a web-friendly format of International Best Track Archive for Climate Stewardship (IBTrACS), a global best track data archive curated by NOAA dating back to 1842.

Updated: 2021-12-03